Arvada, CO

12:23 PM MST on December 20, 2014 (GMT -0700)
Glen Ellen | Change Station
CLOSE
Current Station
Personal Weather Station
Location: Arvada, CO
Elevation: 5377 ft
Nearby Weather Stations

Elev 5377 ft 39.80 °N, 105.09 °W | Updated 20 minutes ago

Mostly Cloudy
Mostly Cloudy
39.8 °F
Feels Like 40 °F
N
0.0
Wind Variable Wind from North
Gusts 0.0 mph

Today
High -- | Low -- °F
--% Chance of Precip.
Yesterday
High -- | Low -- °F
Precip. -- in
7:17 AM 4:38 PM
Waning Crescent, 2% visible
Pressure 29.99 in
Visibility 70.0 miles
Clouds Few 8000 ft
Scattered Clouds 12000 ft
Mostly Cloudy 20000 ft
Windchill 40 °F
Dew Point 23 °F
Humidity 50%
Rainfall 0.00 in
Snow Depth Not available.
UV 1 out of 12
Pollen .10 out of 12
Air Quality Not available.
Flu Activity Not available.
METAR KBJC 201847Z 34006KT 70SM FEW080 SCT120 BKN200 04/M09 A2999

More Conditions Fewer Conditions

Pressure 29.99 in
Visibility 70.0 miles
Clouds Few 8000 ft
Scattered Clouds 12000 ft
Mostly Cloudy 20000 ft
Windchill 40 °F
Dew Point 23 °F
Humidity 50%
Rainfall 0.00 in
Snow Depth Not available.
UV 1 out of 12
Pollen .10 out of 12
Air Quality Not available.
Flu Activity Not available.
METAR KBJC 201847Z 34006KT 70SM FEW080 SCT120 BKN200 04/M09 A2999

More Conditions Fewer Conditions

10-Day Weather Forecast

Almanac

Astronomy

Dec. 20, 2014 Rise Set
Actual Time
Civil Twilight
Nautical Twilight
Astronomical Twilight
Moon
Length of Visible Light
Length of Day
Tomorrow will be .
, % of the Moon is Illuminated

Today's Extremes

State Highs State Lows

Community

WunderPhotos

Upload Photos

1,779,256 photos uploaded!

WunderBlogs® & News

Nearby

Air Quality

  Air Quality AQ Index Pollutant
Not available.

Snow Depth

Station Depth Elevation

Earthquake Activity

City Distance Mag. Time & Date
Minimum magnitude displayed is 2.5.

Coastal Water Temperatures

Place Temperature

Nearby Weather Stations